Time,TemperatureF,DewpointF,PressureIn,WindDirection,WindDirectionDegrees,WindSpeedMPH,WindSpeedGustMPH,Humidity,HourlyPrecipIn,Conditions,Clouds,dailyrainin,SoftwareType,DateUTC
2013-12-04 00:04:00,36.5,36.0,29.87,South,180,0.0,-999.0,98,-99.99,,,0.00,Acu-Link.com,2013-12-04 05:04:00,
2013-12-04 00:20:00,36.7,36.4,29.87,West,270,0.0,-999.0,99,-99.99,,,0.00,Acu-Link.com,2013-12-04 05:20:00,
2013-12-04 00:35:00,36.5,36.2,29.86,SSE,157,0.0,-999.0,99,-99.99,,,0.00,Acu-Link.com,2013-12-04 05:35:00,
2013-12-04 00:50:00,36.3,36.0,29.85,ESE,112,0.0,-999.0,99,-99.99,,,0.00,Acu-Link.com,2013-12-04 05:50:00,
2013-12-04 01:05:00,36.7,36.4,29.85,ESE,112,0.0,-999.0,99,-99.99,,,0.00,Acu-Link.com,2013-12-04 06:05:00,
2013-12-04 01:20:00,36.3,36.0,29.86,WNW,292,1.7,-999.0,99,-99.99,,,0.00,Acu-Link.com,2013-12-04 06:20:00,
2013-12-04 01:36:00,36.1,35.8,29.86,SSE,157,0.0,-999.0,99,-99.99,,,0.00,Acu-Link.com,2013-12-04 06:36:00,
2013-12-04 01:51:00,36.1,35.8,29.89,ESE,112,0.0,-999.0,99,-99.99,,,0.00,Acu-Link.com,2013-12-04 06:51:00,
2013-12-04 02:06:00,36.7,36.4,29.89,ESE,112,0.0,-999.0,99,-99.99,,,0.00,Acu-Link.com,2013-12-04 07:06:00,
2013-12-04 02:22:00,36.7,36.4,29.89,NE,45,0.0,-999.0,99,-99.99,,,0.00,Acu-Link.com,2013-12-04 07:22:00,
2013-12-04 02:37:00,37.0,36.7,29.90,SSW,202,0.0,-999.0,99,-99.99,,,0.00,Acu-Link.com,2013-12-04 07:37:00,
2013-12-04 02:52:00,37.0,36.7,29.90,ESE,112,0.0,-999.0,99,-99.99,,,0.00,Acu-Link.com,2013-12-04 07:52:00,
2013-12-04 03:07:00,37.4,37.1,29.88,SSE,157,0.0,-999.0,99,-99.99,,,0.00,Acu-Link.com,2013-12-04 08:07:00,
2013-12-04 03:22:00,37.6,37.3,29.88,ESE,112,1.7,-999.0,99,-99.99,,,0.00,Acu-Link.com,2013-12-04 08:22:00,
2013-12-04 03:38:00,37.2,36.9,29.88,ESE,112,0.0,-999.0,99,-99.99,,,0.00,Acu-Link.com,2013-12-04 08:38:00,
2013-12-04 03:53:00,37.2,36.9,29.89,ESE,112,0.0,-999.0,99,-99.99,,,0.00,Acu-Link.com,2013-12-04 08:53:00,
2013-12-04 04:08:00,36.7,36.4,29.87,ESE,112,0.0,-999.0,99,-99.99,,,0.00,Acu-Link.com,2013-12-04 09:08:00,
2013-12-04 04:23:00,35.6,35.3,29.88,SSW,202,0.0,-999.0,99,-99.99,,,0.00,Acu-Link.com,2013-12-04 09:23:00,
2013-12-04 04:38:00,35.6,35.3,29.88,ESE,112,0.0,-999.0,99,-99.99,,,0.00,Acu-Link.com,2013-12-04 09:38:00,
2013-12-04 04:54:00,36.7,36.4,29.87,ESE,112,0.0,-999.0,99,-99.99,,,0.00,Acu-Link.com,2013-12-04 09:54:00,
2013-12-04 05:09:00,36.3,36.0,29.88,SSE,157,0.0,-999.0,99,-99.99,,,0.00,Acu-Link.com,2013-12-04 10:09:00,
2013-12-04 05:24:00,36.9,36.6,29.88,ESE,112,0.0,-999.0,99,-99.99,,,0.00,Acu-Link.com,2013-12-04 10:24:00,
2013-12-04 05:39:00,37.0,36.7,29.89,SE,135,0.0,-999.0,99,-99.99,,,0.00,Acu-Link.com,2013-12-04 10:39:00,
2013-12-04 05:54:00,37.0,36.7,29.88,ESE,112,2.7,-999.0,99,-99.99,,,0.00,Acu-Link.com,2013-12-04 10:54:00,
2013-12-04 06:10:00,36.9,36.6,29.88,SSE,157,1.1,-999.0,99,-99.99,,,0.00,Acu-Link.com,2013-12-04 11:10:00,
2013-12-04 06:25:00,37.0,36.7,29.88,ESE,112,0.0,-999.0,99,-99.99,,,0.00,Acu-Link.com,2013-12-04 11:25:00,
2013-12-04 06:40:00,36.9,36.6,29.89,SSE,157,0.0,-999.0,99,-99.99,,,0.00,Acu-Link.com,2013-12-04 11:40:00,
2013-12-04 06:55:00,36.7,36.4,29.90,ESE,112,0.0,-999.0,99,-99.99,,,0.00,Acu-Link.com,2013-12-04 11:55:00,
2013-12-04 07:11:00,36.1,35.8,29.91,ESE,112,1.1,-999.0,99,-99.99,,,0.00,Acu-Link.com,2013-12-04 12:11:00,
2013-12-04 07:26:00,36.1,35.8,29.91,SSE,157,0.0,-999.0,99,-99.99,,,0.00,Acu-Link.com,2013-12-04 12:26:00,
2013-12-04 07:41:00,36.1,35.8,29.92,ESE,112,0.0,-999.0,99,-99.99,,,0.00,Acu-Link.com,2013-12-04 12:41:00,
2013-12-04 07:56:00,36.3,36.0,29.92,West,270,0.0,-999.0,99,-99.99,,,0.00,Acu-Link.com,2013-12-04 12:56:00,
2013-12-04 08:11:00,36.5,36.2,29.93,SW,225,0.0,-999.0,99,-99.99,,,0.00,Acu-Link.com,2013-12-04 13:11:00,
2013-12-04 08:27:00,37.0,36.7,29.93,South,180,0.0,-999.0,99,-99.99,,,0.00,Acu-Link.com,2013-12-04 13:27:00,
2013-12-04 08:42:00,38.7,38.4,29.94,NE,45,0.0,-999.0,99,-99.99,,,0.00,Acu-Link.com,2013-12-04 13:42:00,
2013-12-04 08:57:00,40.3,40.0,29.94,NNE,22,0.0,-999.0,99,-99.99,,,0.00,Acu-Link.com,2013-12-04 13:57:00,
2013-12-04 09:12:00,43.5,43.2,29.95,SSE,157,1.7,-999.0,99,-99.99,,,0.00,Acu-Link.com,2013-12-04 14:12:00,
2013-12-04 09:28:00,46.9,46.6,29.95,West,270,2.2,-999.0,99,-99.99,,,0.00,Acu-Link.com,2013-12-04 14:28:00,
2013-12-04 09:43:00,46.9,46.6,29.95,NNW,337,0.0,-999.0,99,-99.99,,,0.00,Acu-Link.com,2013-12-04 14:43:00,
2013-12-04 09:58:00,49.8,47.9,29.95,SW,225,1.7,-999.0,93,-99.99,,,0.00,Acu-Link.com,2013-12-04 14:58:00,
2013-12-04 10:13:00,51.4,48.6,29.95,WNW,292,3.2,-999.0,90,-99.99,,,0.00,Acu-Link.com,2013-12-04 15:13:00,
2013-12-04 10:29:00,51.1,48.0,29.95,NW,315,2.7,-999.0,89,-99.99,,,0.00,Acu-Link.com,2013-12-04 15:29:00,
2013-12-04 10:44:00,52.0,48.3,29.95,NNE,22,1.7,-999.0,87,-99.99,,,0.00,Acu-Link.com,2013-12-04 15:44:00,
2013-12-04 10:59:00,52.3,48.2,29.95,North,0,1.7,-999.0,86,-99.99,,,0.00,Acu-Link.com,2013-12-04 15:59:00,
2013-12-04 11:14:00,53.1,48.4,29.94,ESE,112,0.0,-999.0,84,-99.99,,,0.00,Acu-Link.com,2013-12-04 16:14:00,
2013-12-04 11:29:00,54.3,48.6,29.94,NNE,22,2.7,-999.0,81,-99.99,,,0.00,Acu-Link.com,2013-12-04 16:29:00,
2013-12-04 11:45:00,55.8,49.4,29.93,SSW,202,3.7,-999.0,79,-99.99,,,0.00,Acu-Link.com,2013-12-04 16:45:00,
2013-12-04 12:00:00,55.6,48.8,29.93,WSW,247,3.2,-999.0,78,-99.99,,,0.00,Acu-Link.com,2013-12-04 17:00:00,
2013-12-04 12:15:00,56.8,49.0,29.92,SW,225,1.7,-999.0,75,-99.99,,,0.00,Acu-Link.com,2013-12-04 17:15:00,
2013-12-04 12:30:00,57.2,49.3,29.92,WSW,247,6.3,-999.0,75,-99.99,,,0.00,Acu-Link.com,2013-12-04 17:30:00,
2013-12-04 12:45:00,57.2,49.0,29.91,South,180,1.1,-999.0,74,-99.99,,,0.00,Acu-Link.com,2013-12-04 17:45:00,
2013-12-04 13:01:00,57.2,49.0,29.90,SSE,157,4.7,-999.0,74,-99.99,,,0.00,Acu-Link.com,2013-12-04 18:01:00,
2013-12-04 13:16:00,57.7,48.7,29.90,South,180,5.3,-999.0,72,-99.99,,,0.00,Acu-Link.com,2013-12-04 18:16:00,
2013-12-04 13:31:00,56.3,48.5,29.90,SSE,157,1.7,-999.0,75,-99.99,,,0.00,Acu-Link.com,2013-12-04 18:31:00,
2013-12-04 13:46:00,56.7,48.5,29.89,SSW,202,2.7,-999.0,74,-99.99,,,0.00,Acu-Link.com,2013-12-04 18:46:00,
2013-12-04 14:02:00,57.0,48.1,29.88,SE,135,3.7,-999.0,72,-99.99,,,0.00,Acu-Link.com,2013-12-04 19:02:00,
2013-12-04 14:17:00,56.3,47.8,29.87,SW,225,2.2,-999.0,73,-99.99,,,0.00,Acu-Link.com,2013-12-04 19:17:00,
2013-12-04 14:32:00,55.8,47.6,29.88,South,180,3.2,-999.0,74,-99.99,,,0.00,Acu-Link.com,2013-12-04 19:32:00,
2013-12-04 14:47:00,55.2,47.8,29.87,South,180,1.1,-999.0,76,-99.99,,,0.00,Acu-Link.com,2013-12-04 19:47:00,
2013-12-04 15:03:00,54.3,47.6,29.88,NE,45,2.2,-999.0,78,-99.99,,,0.00,Acu-Link.com,2013-12-04 20:03:00,
2013-12-04 15:18:00,53.8,47.1,29.88,West,270,2.2,-999.0,78,-99.99,,,0.00,Acu-Link.com,2013-12-04 20:18:00,
2013-12-04 15:33:00,54.5,47.8,29.88,ESE,112,2.2,-999.0,78,-99.99,,,0.00,Acu-Link.com,2013-12-04 20:33:00,
2013-12-04 15:48:00,52.5,46.5,29.88,SSE,157,1.1,-999.0,80,-99.99,,,0.00,Acu-Link.com,2013-12-04 20:48:00,
2013-12-04 16:03:00,51.3,45.7,29.89,SSW,202,2.2,-999.0,81,-99.99,,,0.00,Acu-Link.com,2013-12-04 21:03:00,
2013-12-04 16:19:00,50.5,45.2,29.90,WNW,292,4.2,-999.0,82,-99.99,,,0.00,Acu-Link.com,2013-12-04 21:19:00,
2013-12-04 16:34:00,49.5,44.9,29.89,East,90,2.7,-999.0,84,-99.99,,,0.00,Acu-Link.com,2013-12-04 21:34:00,
2013-12-04 16:49:00,48.7,44.4,29.90,ESE,112,4.2,-999.0,85,-99.99,,,0.00,Acu-Link.com,2013-12-04 21:49:00,
2013-12-04 17:04:00,47.8,43.8,29.89,SSE,157,3.2,-999.0,86,-99.99,,,0.00,Acu-Link.com,2013-12-04 22:04:00,
2013-12-04 17:19:00,47.3,43.9,29.91,SSE,157,4.7,-999.0,88,-99.99,,,0.00,Acu-Link.com,2013-12-04 22:19:00,
2013-12-04 17:35:00,46.9,43.5,29.91,SSE,157,2.7,-999.0,88,-99.99,,,0.00,Acu-Link.com,2013-12-04 22:35:00,
2013-12-04 17:50:00,46.2,43.1,29.90,SSE,157,5.3,-999.0,89,-99.99,,,0.00,Acu-Link.com,2013-12-04 22:50:00,
2013-12-04 18:05:00,45.9,43.1,29.92,SSW,202,2.7,-999.0,90,-99.99,,,0.00,Acu-Link.com,2013-12-04 23:05:00,
2013-12-04 18:20:00,45.5,42.7,29.91,South,180,1.7,-999.0,90,-99.99,,,0.00,Acu-Link.com,2013-12-04 23:20:00,
2013-12-04 18:36:00,45.0,42.5,29.91,ESE,112,6.3,-999.0,91,-99.99,,,0.00,Acu-Link.com,2013-12-04 23:36:00,
2013-12-04 18:51:00,44.8,42.6,29.91,South,180,4.2,-999.0,92,-99.99,,,0.00,Acu-Link.com,2013-12-04 23:51:00,
2013-12-04 19:06:00,44.6,42.7,29.91,WNW,292,2.2,-999.0,93,-99.99,,,0.00,Acu-Link.com,2013-12-05 00:06:00,
2013-12-04 19:21:00,44.2,42.6,29.91,NW,315,2.7,-999.0,94,-99.99,,,0.00,Acu-Link.com,2013-12-05 00:21:00,
2013-12-04 19:36:00,43.9,42.6,29.92,WSW,247,1.7,-999.0,95,-99.99,,,0.00,Acu-Link.com,2013-12-05 00:36:00,
2013-12-04 19:52:00,43.3,42.5,29.91,SW,225,2.7,-999.0,97,-99.99,,,0.00,Acu-Link.com,2013-12-05 00:52:00,
2013-12-04 20:07:00,43.7,42.9,29.92,SW,225,5.8,-999.0,97,-99.99,,,0.00,Acu-Link.com,2013-12-05 01:07:00,
2013-12-04 20:22:00,43.0,42.5,29.92,ENE,67,1.7,-999.0,98,-99.99,,,0.00,Acu-Link.com,2013-12-05 01:22:00,
2013-12-04 20:37:00,43.2,42.9,29.91,East,90,3.7,-999.0,99,-99.99,,,0.00,Acu-Link.com,2013-12-05 01:37:00,
2013-12-04 20:52:00,43.2,42.9,29.91,West,270,2.7,-999.0,99,-99.99,,,0.00,Acu-Link.com,2013-12-05 01:52:00,
2013-12-04 21:08:00,42.8,42.5,29.93,NNW,337,1.1,-999.0,99,-99.99,,,0.00,Acu-Link.com,2013-12-05 02:08:00,
2013-12-04 21:23:00,42.6,42.3,29.92,ESE,112,0.0,-999.0,99,-99.99,,,0.00,Acu-Link.com,2013-12-05 02:23:00,
2013-12-04 21:38:00,42.8,42.5,29.92,West,270,2.7,-999.0,99,-99.99,,,0.00,Acu-Link.com,2013-12-05 02:38:00,
2013-12-04 21:53:00,43.5,43.2,29.91,NE,45,3.2,-999.0,99,-99.99,,,0.00,Acu-Link.com,2013-12-05 02:53:00,
2013-12-04 22:08:00,43.0,42.7,29.93,NNW,337,2.7,-999.0,99,-99.99,,,0.00,Acu-Link.com,2013-12-05 03:08:00,
2013-12-04 22:24:00,42.8,42.5,29.93,West,270,1.1,-999.0,99,-99.99,,,0.00,Acu-Link.com,2013-12-05 03:24:00,
2013-12-04 22:39:00,42.3,42.0,29.93,West,270,0.0,-999.0,99,-99.99,,,0.00,Acu-Link.com,2013-12-05 03:39:00,
2013-12-04 22:54:00,42.1,41.8,29.92,NW,315,0.0,-999.0,99,-99.99,,,0.00,Acu-Link.com,2013-12-05 03:54:00,
2013-12-04 23:10:00,41.7,41.4,29.92,NNE,22,1.7,-999.0,99,-99.99,,,0.00,Acu-Link.com,2013-12-05 04:10:00,
2013-12-04 23:25:00,41.9,41.6,29.92,NNE,22,2.2,-999.0,99,-99.99,,,0.00,Acu-Link.com,2013-12-05 04:25:00,
2013-12-04 23:40:00,41.9,41.6,29.93,NNE,22,1.7,-999.0,99,-99.99,,,0.00,Acu-Link.com,2013-12-05 04:40:00,
2013-12-04 23:55:00,42.1,41.8,29.92,South,180,0.0,-999.0,99,-99.99,,,0.00,Acu-Link.com,2013-12-05 04:55:00,